Startpagina
METAR-TAF:

METAR-TAF

Vliegvelden :

Doesjanbe, Tadzjikistan

Luchthaven Doesjanbe

breedte: 38-33N, lengte: 068-47E, hoogte: 803 m

Actueel weer

Dit bericht is 29 minuten geleden gemaakt, om 16:00 UTC
Wind 2 kt uit variabele richting
Temperatuur 30°C
Vochtigheid 31%
Druk 1003 hPa
Zicht: 8000 m
Weinig wolken op 6600 ft, Cumulonimbus.

METAR: UTDD 251600Z VRB01MPS 8000 FEW066CB 30/11 Q1003 R09/D NOSIG RMK QFE684/0913

Tijdstip: 21:29 (16:29 UTC)

Verwachting

Dit bericht is 1 uur en het 29 minuten geleden gemaakt, om 15:00 UTC
Verwachting geldig van 25 om 16 UTC tot 26 om 04 UTC
Wind 4 kt uit variabele richting
Zicht: 6000 m
Weinig wolken op 6600 ft, Cumulonimbus.
Gebroken wolken op 10000 ft
Tijdelijke
van 25 om 16 UTC tot 25 om 22 UTC
Wind 12 kt uit het westen

TAF: UTDD 251500Z 2516/2604 VRB02MPS 6000 FEW066CB BKN100 TEMPO 2516/2522 28006MPS

Waarnemingen en weersverwachtingen van meer dan 4000 vliegvelden (METAR en TAF).

De beschikbare stations zijn de gele en rode punten op de kaart.

Ga met uw muis naar het station om de naam te zien.

Klik dan om waarnemingen en weersverwachtingen te zien.

kaart wijzigen: klik op de groene knoppen met een zwart kruis om in te zoomen, op de groene knop met een streepje om uit te zoomen of op de groene pijlen voor aangrenzende kaarten.


METAR-TAF: